Time;durP1;ratioP1;P1;durP2;ratioP2;P2;SDS_P1;SDS_P2;PMS_P1;PMS_P2;Temp;Humidity;BMP_temperature;BMP_pressure;BME280_temperature;BME280_humidity;BME280_pressure;Samples;Min_cycle;Max_cycle;Signal;HPM_P1;HPM_P2
2022/09/04 00:02:38;;;;;;;2.63;1.10;;;23.00;54.70;;;;;;5009148;28;20049;-61
2022/09/04 00:05:26;;;;;;;2.25;1.02;;;23.00;54.80;;;;;;5057990;28;20060;-61
2022/09/04 00:08:13;;;;;;;2.55;1.00;;;23.00;54.80;;;;;;5059960;28;20057;-62
2022/09/04 00:10:48;;;;;;;2.90;1.00;;;23.00;54.80;;;;;;5055252;28;20391;-61
2022/09/04 00:13:26;;;;;;;2.50;1.30;;;23.00;54.80;;;;;;5074433;28;20044;-61
2022/09/04 00:16:05;;;;;;;2.47;1.20;;;23.00;54.80;;;;;;5057359;28;20053;-61
2022/09/04 00:18:33;;;;;;;2.85;1.20;;;23.00;54.80;;;;;;5074863;28;20036;-61
2022/09/04 00:21:29;;;;;;;1.80;1.00;;;23.00;54.90;;;;;;5075400;28;20045;-61
2022/09/04 00:24:02;;;;;;;2.70;1.17;;;23.00;54.90;;;;;;5063601;28;20079;-61
2022/09/04 00:26:51;;;;;;;3.90;1.48;;;23.00;54.90;;;;;;5057369;28;20120;-61
2022/09/04 00:29:23;;;;;;;2.22;1.13;;;23.00;54.90;;;;;;5074710;28;20491;-61
2022/09/04 00:32:16;;;;;;;3.13;1.20;;;23.00;54.90;;;;;;5074550;28;20119;-61
2022/09/04 00:35:08;;;;;;;2.97;1.10;;;22.90;54.90;;;;;;5072238;28;20052;-61
2022/09/04 00:37:55;;;;;;;3.72;1.27;;;22.90;54.90;;;;;;5074227;28;20052;-61
2022/09/04 00:40:43;;;;;;;4.00;1.10;;;22.90;54.90;;;;;;5074019;28;20052;-61
2022/09/04 00:43:21;;;;;;;2.53;0.95;;;22.90;55.00;;;;;;5075136;28;20049;-61
2022/09/04 00:46:17;;;;;;;2.53;0.95;;;22.90;54.90;;;;;;5074150;28;20053;-61
2022/09/04 00:49:10;;;;;;;2.55;0.93;;;22.90;55.00;;;;;;5074418;28;20086;-61
2022/09/04 00:51:57;;;;;;;2.50;1.10;;;22.90;55.00;;;;;;5091987;28;20455;-61
2022/09/04 00:55:00;;;;;;;2.78;1.00;;;22.90;55.00;;;;;;5074395;28;20043;-61
2022/09/04 00:57:50;;;;;;;3.50;1.08;;;22.90;55.00;;;;;;5074371;28;20041;-61
2022/09/04 01:00:19;;;;;;;3.17;1.10;;;22.90;55.10;;;;;;5073914;28;20055;-61
2022/09/04 01:02:54;;;;;;;4.50;1.10;;;22.90;55.10;;;;;;5074799;28;20093;-62
2022/09/04 01:05:46;;;;;;;1.73;1.10;;;22.90;55.20;;;;;;5072295;28;20071;-61
2022/09/04 01:08:33;;;;;;;2.50;1.05;;;22.90;55.10;;;;;;5073288;28;20097;-61
2022/09/04 01:11:02;;;;;;;3.45;1.30;;;22.90;55.10;;;;;;5073477;28;20090;-61
2022/09/04 01:14:00;;;;;;;1.73;0.93;;;22.90;55.10;;;;;;5073517;28;20143;-61
2022/09/04 01:16:33;;;;;;;2.58;0.90;;;22.90;55.10;;;;;;5072142;28;20053;-61
2022/09/04 01:19:02;;;;;;;1.77;1.10;;;22.90;55.10;;;;;;5055950;28;20048;-61
2022/09/04 01:21:58;;;;;;;2.35;0.90;;;22.80;55.10;;;;;;5072844;28;20525;-62
2022/09/04 01:24:38;;;;;;;2.20;1.10;;;22.90;55.20;;;;;;5072188;28;20044;-61
2022/09/04 01:27:08;;;;;;;2.50;1.08;;;22.80;55.10;;;;;;5073384;28;20124;-61
2022/09/04 01:30:16;;;;;;;2.28;1.00;;;22.80;55.10;;;;;;5073614;28;20047;-61
2022/09/04 01:33:00;;;;;;;;;;;22.80;55.10;;;;;;5074476;28;20144;-61
2022/09/04 01:35:38;;;;;;;1.98;1.15;;;22.80;55.10;;;;;;5071684;28;19920;-61
2022/09/04 01:38:21;;;;;;;1.48;0.95;;;22.80;55.20;;;;;;5074070;28;20102;-61
2022/09/04 01:41:04;;;;;;;2.13;1.00;;;22.80;55.20;;;;;;5071847;28;20048;-61
2022/09/04 01:43:30;;;;;;;2.10;1.05;;;22.80;55.30;;;;;;5073455;28;20098;-61
2022/09/04 01:45:55;;;;;;;2.10;0.90;;;22.80;55.30;;;;;;5073505;28;20045;-61
2022/09/04 01:48:42;;;;;;;1.33;0.90;;;22.80;55.20;;;;;;5072445;28;20055;-61
2022/09/04 01:51:43;;;;;;;2.17;0.90;;;22.80;55.20;;;;;;5073547;28;20123;-61
2022/09/04 01:54:20;;;;;;;2.38;0.80;;;22.80;55.20;;;;;;5072199;28;20090;-61
2022/09/04 01:57:15;;;;;;;3.25;1.45;;;22.80;55.30;;;;;;5073752;28;20041;-61
2022/09/04 01:59:53;;;;;;;2.10;1.10;;;22.80;55.30;;;;;;5073596;28;20167;-61
2022/09/04 02:02:28;;;;;;;3.17;1.40;;;22.80;55.40;;;;;;5105469;28;20051;-61
2022/09/04 02:05:25;;;;;;;2.00;1.02;;;22.80;55.30;;;;;;5093148;28;20048;-61
2022/09/04 02:08:40;;;;;;;2.03;1.07;;;22.80;55.30;;;;;;5092114;28;20452;-60
2022/09/04 02:11:09;;;;;;;1.65;1.00;;;22.80;55.30;;;;;;5088300;28;20302;-61
2022/09/04 02:14:03;;;;;;;2.13;1.10;;;22.80;55.30;;;;;;5093222;28;20036;-61
2022/09/04 02:17:01;;;;;;;2.53;1.17;;;22.80;55.30;;;;;;5091157;28;20381;-61
2022/09/04 02:20:05;;;;;;;1.45;0.90;;;22.70;55.30;;;;;;5091989;28;20052;-61
2022/09/04 02:23:10;;;;;;;2.58;1.08;;;22.70;55.30;;;;;;5090981;28;20052;-61
2022/09/04 02:25:54;;;;;;;2.33;1.00;;;22.70;55.40;;;;;;5092851;28;20106;-61
2022/09/04 02:28:58;;;;;;;4.00;1.30;;;22.70;55.30;;;;;;5092862;28;20044;-61
2022/09/04 02:32:03;;;;;;;1.55;1.17;;;22.70;55.30;;;;;;5029770;28;20045;-61
2022/09/04 02:34:45;;;;;;;1.55;1.00;;;22.70;55.40;;;;;;5016575;28;20050;-61
2022/09/04 02:37:27;;;;;;;1.67;1.00;;;22.70;55.40;;;;;;5078780;28;20048;-61
2022/09/04 02:40:25;;;;;;;2.22;1.20;;;22.70;55.40;;;;;;5076449;28;20051;-61
2022/09/04 02:43:00;;;;;;;3.05;1.30;;;22.70;55.50;;;;;;5091828;28;20467;-61
2022/09/04 02:45:34;;;;;;;1.73;0.90;;;22.70;55.40;;;;;;5092034;28;20105;-61
2022/09/04 02:48:08;;;;;;;2.13;1.02;;;22.70;55.40;;;;;;5091578;28;20048;-61
2022/09/04 02:51:12;;;;;;;2.25;1.02;;;22.70;55.40;;;;;;5090366;28;20495;-61
2022/09/04 02:53:58;;;;;;;2.05;1.20;;;22.70;55.40;;;;;;5091914;28;20122;-61
2022/09/04 02:56:38;;;;;;;2.90;1.10;;;22.70;55.50;;;;;;5091706;28;20055;-61
2022/09/04 02:59:26;;;;;;;1.75;1.10;;;22.70;55.50;;;;;;5075724;28;20056;-61
2022/09/04 03:01:56;;;;;;;2.35;1.08;;;22.70;55.50;;;;;;5092810;28;20035;-61
2022/09/04 03:04:38;;;;;;;1.65;0.85;;;22.70;55.60;;;;;;5091353;28;20480;-61
2022/09/04 03:07:12;;;;;;;2.22;1.20;;;22.70;55.50;;;;;;5092722;28;20066;-61
2022/09/04 03:10:00;;;;;;;1.80;0.98;;;22.70;55.60;;;;;;5108738;28;20040;-61
2022/09/04 03:12:51;;;;;;;1.60;0.80;;;22.70;55.60;;;;;;5090914;28;20054;-61
2022/09/04 03:15:33;;;;;;;1.98;1.08;;;22.70;55.60;;;;;;5092355;28;20043;-61
2022/09/04 03:18:23;;;;;;;2.10;1.10;;;22.70;55.60;;;;;;5090610;28;20506;-61
2022/09/04 03:21:07;;;;;;;1.98;1.23;;;22.70;55.60;;;;;;5090444;28;20407;-61
2022/09/04 03:23:47;;;;;;;2.03;1.00;;;22.70;55.60;;;;;;5075509;28;20041;-61
2022/09/04 03:26:34;;;;;;;3.80;1.10;;;22.70;55.60;;;;;;5090751;28;20069;-61
2022/09/04 03:29:28;;;;;;;1.85;1.15;;;22.70;55.70;;;;;;5091036;28;20076;-61
2022/09/04 03:32:02;;;;;;;3.63;1.40;;;22.70;55.70;;;;;;5092248;28;20066;-61
2022/09/04 03:35:00;;;;;;;2.67;1.33;;;22.60;55.70;;;;;;5091337;28;20135;-61
2022/09/04 03:37:35;;;;;;;3.22;1.15;;;22.60;55.70;;;;;;5067592;28;20052;-61
2022/09/04 03:40:10;;;;;;;2.85;1.00;;;22.60;55.70;;;;;;5091516;28;20040;-61
2022/09/04 03:42:48;;;;;;;2.65;1.15;;;22.60;55.70;;;;;;5091971;28;20040;-61
2022/09/04 03:45:13;;;;;;;;;;;22.60;55.70;;;;;;5092472;28;20066;-61
2022/09/04 03:48:02;;;;;;;2.20;1.10;;;22.60;55.70;;;;;;5095306;28;20279;-61
2022/09/04 03:50:46;;;;;;;1.63;1.10;;;22.60;55.70;;;;;;5077921;28;20079;-61
2022/09/04 03:53:20;;;;;;;2.30;1.23;;;22.60;55.70;;;;;;5096060;28;20170;-61
2022/09/04 03:56:22;;;;;;;1.98;1.17;;;22.60;55.80;;;;;;5095547;28;20123;-61
2022/09/04 03:59:02;;;;;;;4.07;1.40;;;22.60;55.70;;;;;;5096072;28;20075;-61
2022/09/04 04:01:35;;;;;;;2.83;1.25;;;22.50;55.70;;;;;;5077214;28;20044;-61
2022/09/04 04:04:42;;;;;;;2.40;1.20;;;22.60;55.80;;;;;;5092994;28;20051;-61
2022/09/04 04:07:39;;;;;;;2.45;1.05;;;22.60;55.80;;;;;;4996274;28;20054;-61
2022/09/04 04:10:32;;;;;;;2.17;1.25;;;22.50;55.70;;;;;;5094041;28;20087;-61
2022/09/04 04:13:20;;;;;;;2.35;1.30;;;22.50;55.70;;;;;;5096012;28;20161;-61
2022/09/04 04:15:54;;;;;;;2.38;1.20;;;22.50;55.80;;;;;;5094993;28;20048;-61
2022/09/04 04:18:33;;;;;;;2.05;1.20;;;22.50;55.80;;;;;;5094485;28;20104;-60
2022/09/04 04:21:07;;;;;;;2.83;1.40;;;22.50;55.70;;;;;;5095272;28;20564;-61
2022/09/04 04:24:04;;;;;;;2.50;1.20;;;22.50;55.80;;;;;;5093374;28;20141;-60
2022/09/04 04:27:05;;;;;;;1.80;1.10;;;22.50;55.80;;;;;;5094972;28;20399;-60
2022/09/04 04:29:54;;;;;;;2.03;1.30;;;22.50;55.80;;;;;;5076590;28;20051;-61
2022/09/04 04:32:31;;;;;;;2.00;1.17;;;22.50;55.80;;;;;;5093592;28;20419;-61
2022/09/04 04:34:57;;;;;;;1.85;1.25;;;22.50;55.80;;;;;;5078027;28;20158;-61
2022/09/04 04:37:35;;;;;;;1.98;1.23;;;22.50;55.80;;;;;;5094570;28;20127;-62
2022/09/04 04:40:05;;;;;;;2.97;1.60;;;22.50;55.90;;;;;;5094861;28;20093;-62
2022/09/04 04:42:50;;;;;;;2.72;1.33;;;22.50;55.90;;;;;;5093941;28;20111;-61
2022/09/04 04:48:19;;;;;;;2.08;1.20;;;22.50;55.90;;;;;;5079069;28;20059;-61
2022/09/04 04:51:15;;;;;;;1.58;1.10;;;22.50;55.90;;;;;;5093956;28;20051;-62
2022/09/04 04:53:56;;;;;;;2.60;1.30;;;22.50;55.90;;;;;;5079047;28;20043;-61
2022/09/04 04:56:32;;;;;;;2.00;1.30;;;22.40;55.80;;;;;;5093545;28;20130;-62
2022/09/04 04:59:22;;;;;;;4.13;1.40;;;22.40;55.80;;;;;;5075727;28;20072;-61
2022/09/04 05:01:56;;;;;;;2.28;1.38;;;22.50;55.80;;;;;;5094614;28;20142;-62
2022/09/04 05:04:44;;;;;;;2.40;1.40;;;22.50;55.90;;;;;;5093657;28;20824;-61
2022/09/04 05:07:30;;;;;;;2.80;1.42;;;22.50;55.80;;;;;;5093782;28;20483;-62
2022/09/04 05:10:05;;;;;;;2.38;1.25;;;22.50;55.90;;;;;;5078738;28;20040;-61
2022/09/04 05:12:56;;;;;;;1.90;1.35;;;22.50;55.90;;;;;;5092554;28;20040;-61
2022/09/04 05:15:39;;;;;;;1.77;1.20;;;22.50;55.90;;;;;;5078320;28;20044;-61
2022/09/04 05:18:13;;;;;;;3.17;1.77;;;22.50;55.90;;;;;;5094310;28;20483;-62
2022/09/04 05:21:02;;;;;;;2.33;1.50;;;22.40;55.90;;;;;;5076845;28;20059;-62
2022/09/04 05:23:33;;;;;;;2.47;1.50;;;22.40;55.90;;;;;;5093029;28;20048;-64
2022/09/04 05:26:22;;;;;;;2.72;1.48;;;22.40;55.90;;;;;;5092544;28;20040;-61
2022/09/04 05:29:30;;;;;;;2.13;1.30;;;22.40;55.90;;;;;;5092723;28;20391;-61
2022/09/04 05:32:00;;;;;;;2.38;1.52;;;22.40;56.00;;;;;;5092931;28;20381;-62
2022/09/04 05:34:50;;;;;;;1.88;1.20;;;22.40;56.00;;;;;;5093142;28;20514;-62
2022/09/04 05:37:18;;;;;;;2.85;1.23;;;22.40;56.00;;;;;;5092895;28;20082;-61
2022/09/04 05:39:46;;;;;;;2.20;1.38;;;22.40;56.00;;;;;;5092105;28;20047;-62
2022/09/04 05:42:16;;;;;;;2.22;1.35;;;22.40;56.00;;;;;;5093854;28;20050;-62
2022/09/04 05:45:04;;;;;;;3.75;1.60;;;22.40;56.00;;;;;;5092773;28;20089;-61
2022/09/04 05:47:41;;;;;;;2.35;1.40;;;22.40;56.10;;;;;;5091247;28;20898;-62
2022/09/04 05:50:19;;;;;;;3.03;1.40;;;22.40;56.00;;;;;;5077138;28;20070;-62
2022/09/04 05:53:00;;;;;;;4.13;1.50;;;22.40;55.90;;;;;;5092568;28;20419;-62
2022/09/04 05:56:03;;;;;;;5.50;2.15;;;22.40;55.90;;;;;;5091913;28;20043;-62
2022/09/04 05:58:50;;;;;;;2.03;1.67;;;22.40;56.20;;;;;;5093524;28;20131;-62
2022/09/04 06:01:30;;;;;;;3.58;1.80;;;22.50;56.30;;;;;;5092486;28;20484;-62
2022/09/04 06:04:15;;;;;;;3.55;1.63;;;22.50;56.20;;;;;;5093684;28;20040;-62
2022/09/04 06:06:47;;;;;;;4.68;1.70;;;22.50;56.30;;;;;;5092581;28;20048;-62
2022/09/04 06:09:20;;;;;;;5.25;1.90;;;22.50;56.40;;;;;;5091435;28;20052;-62
2022/09/04 06:12:03;;;;;;;5.05;1.95;;;22.50;56.40;;;;;;5091977;28;20098;-62
2022/09/04 06:14:32;;;;;;;5.25;1.80;;;22.50;56.40;;;;;;5091076;28;20040;-62
2022/09/04 06:17:23;;;;;;;3.67;1.70;;;22.50;56.50;;;;;;5093616;28;20129;-62
2022/09/04 06:19:55;;;;;;;7.70;2.05;;;22.50;56.40;;;;;;5074668;28;20472;-62
2022/09/04 06:22:26;;;;;;;4.75;1.60;;;22.50;56.40;;;;;;5074777;28;20094;-63
2022/09/04 06:25:29;;;;;;;7.88;1.55;;;22.50;56.40;;;;;;5092709;28;20051;-61
2022/09/04 06:28:16;;;;;;;4.05;1.73;;;22.50;56.40;;;;;;5072628;28;20131;-62
2022/09/04 06:31:11;;;;;;;4.78;1.80;;;22.50;56.50;;;;;;5072261;28;20052;-65
2022/09/04 06:33:46;;;;;;;5.18;1.85;;;22.50;57.20;;;;;;5041336;28;20146;-62
2022/09/04 06:36:21;;;;;;;3.97;1.70;;;22.50;56.60;;;;;;5070944;28;20105;-62
2022/09/04 06:39:07;;;;;;;4.00;1.83;;;22.50;56.60;;;;;;5089676;28;20539;-62
2022/09/04 06:41:42;;;;;;;4.97;1.40;;;22.50;56.50;;;;;;5108435;28;20056;-62
2022/09/04 06:44:39;;;;;;;5.45;1.70;;;22.50;56.60;;;;;;5091130;28;20040;-62
2022/09/04 06:47:23;;;;;;;3.92;1.90;;;22.50;56.70;;;;;;5092841;28;20590;-62
2022/09/04 06:50:14;;;;;;;4.35;1.50;;;22.50;56.80;;;;;;5090333;28;20504;-63
2022/09/04 06:52:50;;;;;;;4.80;1.50;;;22.60;56.90;;;;;;5088942;28;20040;-63
2022/09/04 06:55:43;;;;;;;3.75;1.77;;;22.50;56.80;;;;;;5091183;28;20475;-64
2022/09/04 06:58:42;;;;;;;3.72;1.70;;;22.60;56.90;;;;;;5090845;28;20384;-63
2022/09/04 07:01:35;;;;;;;5.93;1.95;;;22.50;57.00;;;;;;5091778;28;20040;-63
2022/09/04 07:04:23;;;;;;;5.68;1.77;;;22.60;57.10;;;;;;5084470;28;20578;-62
2022/09/04 07:07:00;;;;;;;;;;;22.60;57.10;;;;;;5092585;28;20406;-62
2022/09/04 07:09:47;;;;;;;2.80;1.70;;;22.60;57.60;;;;;;5091741;28;19951;-62
2022/09/04 07:12:37;;;;;;;3.08;1.77;;;22.60;57.10;;;;;;5072765;28;20120;-62
2022/09/04 07:15:21;;;;;;;3.53;1.48;;;22.60;57.20;;;;;;5091135;28;20395;-62
2022/09/04 07:18:20;;;;;;;2.75;1.60;;;22.60;57.20;;;;;;5091573;28;20048;-61
2022/09/04 07:20:54;;;;;;;4.65;1.88;;;22.60;57.40;;;;;;5091770;28;20085;-62
2022/09/04 07:23:29;;;;;;;4.43;1.80;;;22.70;57.40;;;;;;5095980;28;20044;-61
2022/09/04 07:26:27;;;;;;;4.82;1.98;;;22.70;57.50;;;;;;5094244;28;20093;-62
2022/09/04 07:29:01;;;;;;;3.83;2.00;;;22.70;57.50;;;;;;5076652;28;20048;-62
2022/09/04 07:31:55;;;;;;;4.97;1.90;;;22.70;57.50;;;;;;5093857;28;20067;-62
2022/09/04 07:34:24;;;;;;;3.20;1.67;;;22.70;57.60;;;;;;5119807;27;20511;-62
2022/09/04 07:37:07;;;;;;;4.78;2.35;;;22.80;57.60;;;;;;5095320;28;20036;-62
2022/09/04 07:39:44;;;;;;;4.43;1.60;;;22.70;57.60;;;;;;5094612;28;20044;-62
2022/09/04 07:42:26;;;;;;;4.43;1.90;;;22.70;57.60;;;;;;5091046;28;20489;-61
2022/09/04 07:45:04;;;;;;;6.80;2.08;;;22.80;57.70;;;;;;5091655;28;20487;-62
2022/09/04 07:47:34;;;;;;;;;;;22.80;57.60;;;;;;5089091;28;20048;-62
2022/09/04 07:50:14;;;;;;;10.85;2.53;;;22.80;57.40;;;;;;5091480;28;19920;-62
2022/09/04 07:53:20;;;;;;;5.60;1.83;;;22.80;57.40;;;;;;5069739;28;20048;-62
2022/09/04 07:56:10;;;;;;;9.02;2.50;;;22.80;57.30;;;;;;5095599;28;20052;-62
2022/09/04 07:58:43;;;;;;;4.18;1.73;;;22.80;57.20;;;;;;5089860;28;20150;-62
2022/09/04 08:01:46;;;;;;;4.50;2.20;;;22.90;57.10;;;;;;5095353;28;20055;-62
2022/09/04 08:04:39;;;;;;;4.07;2.10;;;22.80;56.90;;;;;;5096238;28;20050;-62
2022/09/04 08:07:27;;;;;;;8.13;2.15;;;22.90;57.00;;;;;;5094127;28;20040;-62
2022/09/04 08:10:30;;;;;;;5.57;2.13;;;22.90;56.90;;;;;;5094940;28;20052;-62
2022/09/04 08:13:21;;;;;;;3.22;1.70;;;23.00;56.90;;;;;;5095987;28;20124;-62
2022/09/04 08:15:50;;;;;;;3.03;1.55;;;23.00;56.80;;;;;;5094790;28;20384;-62
2022/09/04 08:18:43;;;;;;;6.63;1.73;;;23.00;56.60;;;;;;5095402;28;20040;-62
2022/09/04 08:21:29;;;;;;;5.22;1.90;;;23.00;56.20;;;;;;5093810;28;20086;-63
2022/09/04 08:24:10;;;;;;;4.15;2.03;;;23.00;55.90;;;;;;5088448;28;20040;-62
2022/09/04 08:26:49;;;;;;;6.03;2.08;;;23.00;56.10;;;;;;5082147;28;20036;-60
2022/09/04 08:29:33;;;;;;;3.88;1.98;;;23.00;56.20;;;;;;5093283;28;20505;-63
2022/09/04 08:32:18;;;;;;;6.70;2.03;;;23.00;56.40;;;;;;5094210;28;20123;-62
2022/09/04 08:35:01;;;;;;;4.75;1.65;;;23.00;56.40;;;;;;5094501;28;20134;-61
2022/09/04 08:37:48;;;;;;;4.70;2.10;;;23.10;56.40;;;;;;5094833;28;20044;-62
2022/09/04 08:40:39;;;;;;;6.35;2.10;;;23.10;56.30;;;;;;5063079;28;20048;-62
2022/09/04 08:43:09;;;;;;;3.25;2.08;;;23.10;56.20;;;;;;5094610;28;20047;-62
2022/09/04 08:46:04;;;;;;;9.57;2.33;;;23.10;55.90;;;;;;5093601;28;20131;-62
2022/09/04 08:48:29;;;;;;;4.15;1.85;;;23.10;55.40;;;;;;5077753;28;20104;-62
2022/09/04 08:51:27;;;;;;;5.88;2.40;;;23.10;55.50;;;;;;5094441;28;20043;-62
2022/09/04 08:54:08;;;;;;;6.60;2.10;;;23.10;55.30;;;;;;5095180;28;20055;-62
2022/09/04 08:57:02;;;;;;;5.15;2.10;;;23.10;55.30;;;;;;5093517;28;20056;-62
2022/09/04 08:59:45;;;;;;;4.07;1.92;;;23.10;55.20;;;;;;5093245;28;20122;-63
2022/09/04 09:02:46;;;;;;;6.40;2.30;;;23.10;55.30;;;;;;5094971;28;20047;-62
2022/09/04 09:05:55;;;;;;;5.40;2.47;;;23.20;55.30;;;;;;5093014;28;20051;-62
2022/09/04 09:08:45;;;;;;;4.95;2.10;;;23.10;55.50;;;;;;5093478;28;20044;-62
2022/09/04 09:11:14;;;;;;;3.55;2.00;;;23.10;55.40;;;;;;5093712;28;20079;-62
2022/09/04 09:13:54;;;;;;;3.90;2.15;;;23.10;55.30;;;;;;5092321;28;20075;-62
2022/09/04 09:16:21;;;;;;;5.35;2.05;;;23.20;55.30;;;;;;5093239;28;20123;-62
2022/09/04 09:19:10;;;;;;;3.70;1.85;;;23.20;55.30;;;;;;5093738;28;20055;-62
2022/09/04 09:21:48;;;;;;;4.85;2.08;;;23.20;55.30;;;;;;5092644;28;20344;-62
2022/09/04 09:24:41;;;;;;;4.03;2.05;;;23.20;55.30;;;;;;5094351;28;20043;-63
2022/09/04 09:27:10;;;;;;;5.03;2.30;;;23.10;55.20;;;;;;5076421;28;20040;-64
2022/09/04 09:30:06;;;;;;;2.40;1.80;;;23.20;55.30;;;;;;5093096;28;20039;-62
2022/09/04 09:33:04;;;;;;;4.05;1.80;;;23.20;55.30;;;;;;5093133;28;20115;-62
2022/09/04 09:36:01;;;;;;;6.57;2.13;;;23.20;55.20;;;;;;5059543;28;20105;-63
2022/09/04 09:38:30;;;;;;;4.07;2.33;;;23.20;55.10;;;;;;5092377;28;20062;-63
2022/09/04 09:41:18;;;;;;;5.50;2.15;;;23.10;55.00;;;;;;5094235;28;20039;-62
2022/09/04 09:43:56;;;;;;;3.42;2.00;;;23.20;54.80;;;;;;5092003;28;20036;-62
2022/09/04 09:46:49;;;;;;;3.67;1.90;;;23.20;54.90;;;;;;5092762;28;20048;-61
2022/09/04 09:49:44;;;;;;;2.90;1.80;;;23.20;54.90;;;;;;5092328;28;20083;-61
2022/09/04 09:52:34;;;;;;;2.67;1.83;;;23.20;54.90;;;;;;5075994;28;20051;-62
2022/09/04 09:55:37;;;;;;;5.32;2.00;;;23.20;54.90;;;;;;5093987;28;20044;-61
2022/09/04 09:58:30;;;;;;;4.93;1.85;;;23.20;54.90;;;;;;5092434;28;20128;-62
2022/09/04 10:01:28;;;;;;;3.88;1.80;;;23.20;55.00;;;;;;5089441;28;20040;-62
2022/09/04 10:04:10;;;;;;;4.38;2.10;;;23.20;55.00;;;;;;5077223;28;20480;-62
2022/09/04 10:06:45;;;;;;;4.70;1.75;;;23.20;55.30;;;;;;5079037;28;20484;-61
2022/09/04 10:09:48;;;;;;;3.42;1.70;;;23.20;55.30;;;;;;5077194;28;20110;-61
2022/09/04 10:12:42;;;;;;;3.00;1.73;;;23.20;55.40;;;;;;5079540;28;20058;-62
2022/09/04 10:15:29;;;;;;;3.58;1.67;;;23.20;55.40;;;;;;5075018;28;20049;-60
2022/09/04 10:18:19;;;;;;;4.07;1.63;;;23.20;55.40;;;;;;5070445;28;20033;-61
2022/09/04 10:21:11;;;;;;;4.20;2.05;;;23.30;55.70;;;;;;5085962;28;20035;-61
2022/09/04 10:23:49;;;;;;;3.28;1.90;;;23.30;55.90;;;;;;5080959;28;20119;-61
2022/09/04 10:26:14;;;;;;;3.45;1.75;;;23.30;55.90;;;;;;5080982;28;20130;-61
2022/09/04 10:29:11;;;;;;;2.47;1.63;;;23.30;55.90;;;;;;5077427;28;20135;-61
2022/09/04 10:32:14;;;;;;;7.97;1.90;;;23.30;56.00;;;;;;5077281;28;20040;-61
2022/09/04 10:35:09;;;;;;;3.08;1.42;;;23.30;56.00;;;;;;5075284;28;20057;-62
2022/09/04 10:37:49;;;;;;;3.42;1.70;;;23.30;56.10;;;;;;5076010;28;20441;-62
2022/09/04 10:40:37;;;;;;;3.03;1.77;;;23.40;56.10;;;;;;5080183;28;20089;-62
2022/09/04 10:43:09;;;;;;;4.07;1.70;;;23.30;56.00;;;;;;5069021;28;20064;-62
2022/09/04 10:45:56;;;;;;;3.53;1.67;;;23.40;56.10;;;;;;5076236;28;20102;-61
2022/09/04 10:48:24;;;;;;;3.45;1.80;;;23.40;56.20;;;;;;5079565;28;20052;-61
2022/09/04 10:51:26;;;;;;;3.95;1.70;;;23.40;56.30;;;;;;5075937;28;20504;-61
2022/09/04 10:53:59;;;;;;;3.85;1.55;;;23.40;56.30;;;;;;5077774;28;20048;-61
2022/09/04 10:56:48;;;;;;;3.25;1.85;;;23.40;56.30;;;;;;5068829;28;20048;-62
2022/09/04 10:59:45;;;;;;;3.58;1.60;;;23.40;56.30;;;;;;5080619;28;20086;-62
2022/09/04 11:02:35;;;;;;;2.38;1.40;;;23.50;56.20;;;;;;5059532;28;20048;-62
2022/09/04 11:05:18;;;;;;;4.05;1.63;;;23.40;56.00;;;;;;5076531;28;20085;-61
2022/09/04 11:08:05;;;;;;;4.68;1.40;;;23.50;56.00;;;;;;5092970;28;20063;-62
2022/09/04 11:10:55;;;;;;;4.78;1.70;;;23.40;56.10;;;;;;5075366;28;20126;-61
2022/09/04 11:13:49;;;;;;;3.05;1.60;;;23.50;56.10;;;;;;5091501;28;20051;-61
2022/09/04 11:16:33;;;;;;;3.72;1.70;;;23.50;56.00;;;;;;5092573;28;20130;-62
2022/09/04 11:19:28;;;;;;;3.60;1.67;;;23.40;56.00;;;;;;5091648;28;20139;-62
2022/09/04 11:22:13;;;;;;;5.32;1.80;;;23.50;56.10;;;;;;5070507;28;20056;-61
2022/09/04 11:25:05;;;;;;;4.20;1.60;;;23.50;56.20;;;;;;5081683;28;20475;-61
2022/09/04 11:27:58;;;;;;;3.67;1.38;;;23.50;56.40;;;;;;5073807;28;20056;-61
2022/09/04 11:30:37;;;;;;;2.30;1.80;;;23.50;56.50;;;;;;5087186;28;20047;-61
2022/09/04 11:33:37;;;;;;;5.05;1.85;;;23.50;56.50;;;;;;5085665;28;20041;-62
2022/09/04 11:36:34;;;;;;;3.15;1.75;;;23.50;56.60;;;;;;5086674;28;20040;-61
2022/09/04 11:39:27;;;;;;;3.00;1.60;;;23.50;56.70;;;;;;5082073;28;20076;-62
2022/09/04 11:42:20;;;;;;;3.75;1.80;;;23.50;56.70;;;;;;5085286;28;20036;-61
2022/09/04 11:45:15;;;;;;;4.07;1.45;;;23.50;56.80;;;;;;5084380;28;20045;-62
2022/09/04 11:47:53;;;;;;;3.15;1.42;;;23.50;56.70;;;;;;5083023;28;20044;-62
2022/09/04 11:51:00;;;;;;;2.17;1.40;;;23.60;56.90;;;;;;5083968;28;20040;-62
2022/09/04 11:53:41;;;;;;;4.57;1.88;;;23.60;56.90;;;;;;5082594;28;20412;-62
2022/09/04 11:56:25;;;;;;;2.90;1.70;;;23.60;56.90;;;;;;5083748;28;20395;-62
2022/09/04 11:59:09;;;;;;;3.55;1.60;;;23.60;56.90;;;;;;5084068;28;20040;-62
2022/09/04 12:01:43;;;;;;;2.70;1.55;;;23.60;57.00;;;;;;5056345;28;20128;-62
2022/09/04 12:04:22;;;;;;;4.18;1.73;;;23.50;56.90;;;;;;5084462;28;20454;-62
2022/09/04 12:06:53;;;;;;;5.15;1.88;;;23.60;56.90;;;;;;5085311;28;20048;-62
2022/09/04 12:09:35;;;;;;;2.20;1.30;;;23.60;56.90;;;;;;5090090;28;20126;-61
2022/09/04 12:12:01;;;;;;;4.22;1.60;;;23.60;56.90;;;;;;5087431;28;20039;-62
2022/09/04 12:14:54;;;;;;;4.70;1.58;;;23.60;56.90;;;;;;5086488;28;20044;-62
2022/09/04 12:17:35;;;;;;;1.60;1.30;;;23.60;57.00;;;;;;5088440;28;20123;-62
2022/09/04 12:20:10;;;;;;;5.07;1.60;;;23.60;57.00;;;;;;5086267;28;20047;-62
2022/09/04 12:22:59;;;;;;;3.05;1.77;;;23.60;57.00;;;;;;5090688;28;20090;-62
2022/09/04 12:25:49;;;;;;;2.53;1.40;;;23.70;57.10;;;;;;5090611;28;20094;-62
2022/09/04 12:28:42;;;;;;;3.25;1.70;;;23.60;57.00;;;;;;5085097;28;20475;-62
2022/09/04 12:31:30;;;;;;;4.35;1.48;;;23.70;57.20;;;;;;5088215;28;20048;-63
2022/09/04 12:34:04;;;;;;;2.35;1.50;;;23.70;57.20;;;;;;5088462;28;20044;-62
2022/09/04 12:36:33;;;;;;;2.00;1.48;;;23.70;57.20;;;;;;5082278;28;20684;-62
2022/09/04 12:39:06;;;;;;;3.90;1.48;;;23.70;57.20;;;;;;5083574;28;20051;-62
2022/09/04 12:41:41;;;;;;;2.55;1.50;;;23.70;57.20;;;;;;5090016;28;20347;-62
2022/09/04 12:44:36;;;;;;;3.45;1.60;;;23.70;57.50;;;;;;5085218;28;20487;-63
2022/09/04 12:47:12;;;;;;;3.58;1.58;;;23.70;57.40;;;;;;5076438;28;20060;-62
2022/09/04 12:50:00;;;;;;;3.53;1.90;;;23.70;57.40;;;;;;5080366;28;20415;-62
2022/09/04 12:52:26;;;;;;;;;;;23.70;57.50;;;;;;5082096;28;20131;-62
2022/09/04 12:55:03;;;;;;;4.35;1.40;;;23.70;57.40;;;;;;5086785;28;20438;-61
2022/09/04 12:57:44;;;;;;;2.28;1.50;;;23.80;57.50;;;;;;5090040;28;20052;-61
2022/09/04 13:00:11;;;;;;;3.78;1.35;;;23.80;57.40;;;;;;5090658;28;20039;-62
2022/09/04 13:02:47;;;;;;;2.78;1.50;;;23.80;57.30;;;;;;5090179;28;20474;-62
2022/09/04 13:05:32;;;;;;;2.95;1.35;;;23.80;57.50;;;;;;5090751;28;20479;-62
2022/09/04 13:08:17;;;;;;;4.53;1.40;;;23.80;57.40;;;;;;5090030;28;20491;-62
2022/09/04 13:11:07;;;;;;;3.03;1.40;;;23.90;57.40;;;;;;5070859;28;20558;-62
2022/09/04 13:13:57;;;;;;;2.78;1.35;;;23.90;57.40;;;;;;5088145;28;20175;-62
2022/09/04 13:16:34;;;;;;;2.83;1.48;;;23.90;58.00;;;;;;5078963;28;20048;-62
2022/09/04 13:19:08;;;;;;;5.97;1.55;;;23.90;57.40;;;;;;5082128;28;20044;-63
2022/09/04 13:21:56;;;;;;;2.17;1.48;;;24.00;58.20;;;;;;5080157;28;20512;-62
2022/09/04 13:24:49;;;;;;;2.63;1.30;;;24.00;57.40;;;;;;5078381;28;20048;-61
2022/09/04 13:27:46;;;;;;;2.28;1.33;;;24.00;57.40;;;;;;5078698;28;20102;-62
2022/09/04 13:30:20;;;;;;;3.30;1.40;;;24.10;57.30;;;;;;5077935;28;20514;-63
2022/09/04 13:32:49;;;;;;;2.67;1.38;;;24.10;57.30;;;;;;5067354;28;20046;-61
2022/09/04 13:35:46;;;;;;;2.92;1.50;;;24.20;57.20;;;;;;5087424;28;20060;-62
2022/09/04 13:38:26;;;;;;;;;;;24.20;57.20;;;;;;5077693;28;20122;-61
2022/09/04 13:41:29;;;;;;;3.10;1.50;;;24.20;57.10;;;;;;5114154;27;20372;-61
2022/09/04 13:44:17;;;;;;;2.75;1.40;;;24.30;57.10;;;;;;5082730;28;20063;-63
2022/09/04 13:46:51;;;;;;;3.08;1.38;;;24.30;57.00;;;;;;5077521;28;20044;-62
2022/09/04 13:49:20;;;;;;;3.80;1.80;;;24.40;57.10;;;;;;5070690;28;20055;-61
2022/09/04 13:51:59;;;;;;;2.45;1.50;;;24.40;57.00;;;;;;5060284;28;20439;-61
2022/09/04 13:54:39;;;;;;;2.17;1.70;;;24.50;57.10;;;;;;5076849;28;20044;-61
2022/09/04 13:57:26;;;;;;;4.45;1.52;;;24.50;57.10;;;;;;5082613;28;20568;-62
2022/09/04 13:59:54;;;;;;;3.83;1.80;;;24.60;57.00;;;;;;5077516;28;20052;-61
2022/09/04 14:02:23;;;;;;;4.13;1.58;;;24.60;56.90;;;;;;5083780;28;20086;-61
2022/09/04 14:04:50;;;;;;;8.65;1.67;;;24.60;56.90;;;;;;5076895;28;20055;-61
2022/09/04 14:07:35;;;;;;;2.42;1.70;;;24.70;56.90;;;;;;5069563;28;20044;-63
2022/09/04 14:10:04;;;;;;;2.75;1.60;;;24.70;56.80;;;;;;5077404;28;20369;-63
2022/09/04 14:12:52;;;;;;;2.13;1.60;;;24.80;56.80;;;;;;5071586;28;20044;-63
2022/09/04 14:15:43;;;;;;;4.93;1.73;;;24.80;56.80;;;;;;5076358;28;20412;-63
2022/09/04 14:18:29;;;;;;;3.63;1.80;;;24.80;56.60;;;;;;5078469;28;20097;-62
2022/09/04 14:20:59;;;;;;;5.78;1.60;;;24.90;56.70;;;;;;5087050;28;20047;-62